»·PEaware :: QXE4366 KBOI-KRNO

QXE4366 :: KBOI-KRNO

FLIGHT INFORMATION

Flight Status: Arrived
Operator:
Horizon Air
More flights by this operator :: More flights under this callsign
Pilot: Benjamin K. (16300)
Aircraft: DEHAVILLAND DASH 8 400
(DH8D)
More flights by this aircraft type
Origin: KBOI Boise Air Terminal/Gowen
United States
Destination: KRNO Reno/Tahoe Intl
United States
More flights between these airports :: More routes between these airports
Route: BOI HYVAL REO J7 FMG
File this flight plan on PilotEdge
Remarks:
Altitude:
(Current/Filed)
24,000ft
Speed:
(Current/Filed)
350kts
Departed: 08-Mar-18 03:11 PM
Arrived: 08-Mar-18 04:26 PM
Distance/Time
Traveled:
291nm/1:15
Distance/Time
To Go:
Arrived

Flight Plot

Page will automatically refresh every two minutes.

Flight plan parsing failed; only flown route is shown


Map Options




Map Legend


Flown Route
Filed Route
Departure Airport
Arrival Airport
Navaid (VOR, NDB)
Fix

Horizontal Profiles

Position Reports

Time Latitude Longitude Heading Altitude Ground
Speed
08-Mar-18 14:56 43.566892 -116.219674 24 2841ft 0kts
08-Mar-18 14:57 43.566892 -116.219674 24 2841ft 0kts
08-Mar-18 14:58 43.566892 -116.219674 24 2841ft 0kts
08-Mar-18 14:59 43.566892 -116.219674 24 2841ft 0kts
08-Mar-18 15:00 43.566892 -116.219674 24 2841ft 0kts
08-Mar-18 15:01 43.566892 -116.219674 24 2841ft 0kts
08-Mar-18 15:02 43.566892 -116.219674 24 2841ft 0kts
08-Mar-18 15:03 43.566892 -116.219674 24 2841ft 0kts
08-Mar-18 15:04 43.566892 -116.219674 24 2841ft 0kts
08-Mar-18 15:05 43.566892 -116.219674 24 2841ft 0kts
08-Mar-18 15:06 43.566892 -116.219674 24 2841ft 0kts
08-Mar-18 15:07 43.566892 -116.219674 24 2841ft 0kts
08-Mar-18 15:08 43.566892 -116.219674 24 2841ft 0kts
08-Mar-18 15:09 43.566573 -116.219796 354 2841ft 2kts
08-Mar-18 15:10 43.566317 -116.219503 294 2841ft 0kts
08-Mar-18 15:11 43.566317 -116.219503 294 2841ft 0kts
08-Mar-18 15:12 43.566317 -116.219503 294 2841ft 0kts
08-Mar-18 15:13 43.566058 -116.220228 225 2841ft 6kts
08-Mar-18 15:14 43.566811 -116.223233 295 2841ft 10kts
08-Mar-18 15:15 43.569138 -116.230086 294 2841ft 13kts
08-Mar-18 15:16 43.570452 -116.233967 294 2841ft 12kts
08-Mar-18 15:17 43.570746 -116.236176 206 2841ft 6kts
08-Mar-18 15:18 43.569370 -116.234434 114 2842ft 47kts
08-Mar-18 15:19 43.551665 -116.189232 127 4394ft 150kts
08-Mar-18 15:20 43.534560 -116.131757 115 7260ft 154kts
08-Mar-18 15:21 43.502577 -116.133141 251 10205ft 163kts
08-Mar-18 15:22 43.515833 -116.195764 268 12688ft 169kts
08-Mar-18 15:23 43.507003 -116.253761 244 14648ft 175kts
08-Mar-18 15:24 43.482832 -116.313413 236 15956ft 211kts
08-Mar-18 15:25 43.450257 -116.375242 233 18253ft 187kts
08-Mar-18 15:26 43.418819 -116.431180 233 19992ft 186kts
08-Mar-18 15:27 43.386679 -116.487967 233 21485ft 188kts
08-Mar-18 15:28 43.354278 -116.545468 234 22786ft 190kts
08-Mar-18 15:29 43.321652 -116.603353 235 23854ft 197kts
08-Mar-18 15:30 43.285586 -116.667159 235 23976ft 232kts
08-Mar-18 15:31 43.243777 -116.740937 234 23984ft 257kts
08-Mar-18 15:32 43.197950 -116.821183 234 23983ft 273kts
08-Mar-18 15:33 43.150283 -116.904758 234 23983ft 282kts
08-Mar-18 15:34 43.101213 -116.990530 234 23982ft 287kts
08-Mar-18 15:35 43.051398 -117.077441 234 23981ft 290kts
08-Mar-18 15:36 43.001937 -117.163348 234 23987ft 291kts
08-Mar-18 15:37 42.952024 -117.249745 234 23988ft 292kts
08-Mar-18 15:38 42.904327 -117.331954 234 23988ft 290kts
08-Mar-18 15:39 42.868861 -117.393242 235 23989ft 287kts
08-Mar-18 15:40 42.821693 -117.474175 234 23989ft 285kts
08-Mar-18 15:41 42.773534 -117.556682 234 23990ft 284kts
08-Mar-18 15:42 42.726563 -117.636766 235 23989ft 283kts
08-Mar-18 15:43 42.680519 -117.715332 235 23990ft 282kts
08-Mar-18 15:44 42.631743 -117.798250 235 23990ft 281kts
08-Mar-18 15:45 42.576892 -117.873850 216 23991ft 291kts
08-Mar-18 15:46 42.503822 -117.921258 213 23990ft 292kts
08-Mar-18 15:47 42.430564 -117.966211 213 23990ft 292kts
08-Mar-18 15:48 42.373015 -118.001477 213 23992ft 291kts
08-Mar-18 15:49 42.298967 -118.046626 213 23992ft 291kts
08-Mar-18 15:50 42.224874 -118.091751 213 23993ft 291kts
08-Mar-18 15:51 42.151027 -118.136501 213 23995ft 290kts
08-Mar-18 15:52 42.077140 -118.181270 213 23998ft 290kts
08-Mar-18 15:53 42.003345 -118.225822 213 24001ft 290kts
08-Mar-18 15:54 41.930163 -118.269890 213 24004ft 290kts
08-Mar-18 15:55 41.856776 -118.314192 213 24008ft 291kts
08-Mar-18 15:56 41.782444 -118.358832 213 24012ft 293kts
08-Mar-18 15:57 41.707657 -118.403381 213 24014ft 295kts
08-Mar-18 15:58 41.632773 -118.448153 213 24017ft 296kts
08-Mar-18 15:59 41.557367 -118.492901 212 24030ft 297kts
08-Mar-18 16:00 41.481656 -118.537808 212 24032ft 298kts
08-Mar-18 16:01 41.407532 -118.581649 212 24033ft 299kts
08-Mar-18 16:02 41.331433 -118.626434 212 24037ft 299kts
08-Mar-18 16:03 41.255203 -118.671374 212 24040ft 300kts
08-Mar-18 16:04 41.178909 -118.716125 212 24043ft 300kts
08-Mar-18 16:05 41.102740 -118.760651 212 24045ft 299kts
08-Mar-18 16:06 41.026514 -118.805210 212 24051ft 300kts
08-Mar-18 16:07 40.950846 -118.849139 212 24060ft 300kts
08-Mar-18 16:08 40.874570 -118.893551 212 24056ft 302kts
08-Mar-18 16:09 40.797502 -118.938202 212 24054ft 302kts
08-Mar-18 16:10 40.720758 -118.982524 211 24055ft 303kts
08-Mar-18 16:11 40.643476 -119.027097 211 24056ft 304kts
08-Mar-18 16:12 40.565953 -119.071635 211 24057ft 304kts
08-Mar-18 16:13 40.488995 -119.116029 211 24057ft 304kts
08-Mar-18 16:14 40.411531 -119.160311 211 24058ft 304kts
08-Mar-18 16:15 40.334116 -119.204471 211 23102ft 300kts
08-Mar-18 16:16 40.257801 -119.247865 211 22098ft 296kts
08-Mar-18 16:17 40.196118 -119.282930 211 21274ft 294kts
08-Mar-18 16:18 40.121022 -119.325487 211 20283ft 293kts
08-Mar-18 16:19 40.048449 -119.366455 212 19437ft 289kts
08-Mar-18 16:20 39.975102 -119.407922 211 17938ft 287kts
08-Mar-18 16:21 39.906717 -119.456779 240 16415ft 270kts
08-Mar-18 16:22 39.885069 -119.547667 254 14915ft 248kts
08-Mar-18 16:23 39.867267 -119.627688 253 13305ft 217kts
08-Mar-18 16:24 39.841263 -119.692808 223 11593ft 206kts
08-Mar-18 16:25 39.792129 -119.724888 209 10141ft 191kts
08-Mar-18 16:26 39.745705 -119.748312 204 8917ft 168kts
08-Mar-18 16:27 39.702999 -119.763123 198 8022ft 147kts
08-Mar-18 16:28 39.662103 -119.769977 184 7388ft 162kts
08-Mar-18 16:29 39.616648 -119.768996 180 6666ft 150kts
08-Mar-18 16:30 39.579558 -119.769101 183 5871ft 117kts
08-Mar-18 16:31 39.547748 -119.768926 184 5230ft 120kts
08-Mar-18 16:32 39.515549 -119.769145 183 4509ft 109kts
08-Mar-18 16:33 39.503190 -119.769783 256 4423ft 11kts
08-Mar-18 16:34 39.505082 -119.771484 0 4422ft 5kts
08-Mar-18 16:35 39.505773 -119.773163 191 4422ft 4kts
08-Mar-18 16:36 39.505328 -119.773210 180 4422ft 0kts

Navigation Log

Ident Type
Flight plan parsing failed, navigation log unavailable